Terminal Aerodrome Forecast
Issued by NWS

Current Version | Previous Version | Text Only | Print | Product List | Glossary On
Versions: 1 2 3 4 5 6 7 8 9 10 11 12 13
000
FTUS42 TJSJ 271808 AAA
TAFJMZ
TAF AMD
TJMZ 271808Z 2718/2818 27010KT P6SM VCTS BKN030CB
      TEMPO 2718/2719 VRB10G25KT 3SM TSRA OVC025CB
     FM272230 07007KT P6SM FEW025 SCT035
     FM281600 27011KT P6SM VCTS BKN030CB
      AMD NOT SKED=

USA.gov is the U.S. government's official web portal to all federal, state and local government web resources and services.